createdAt,value
2017-08-28T20:39:33.908Z,101606.48
2017-08-28T20:42:03.672Z,101604.55
2017-08-28T20:44:33.533Z,101603.39
2017-08-28T20:49:33.412Z,101603.14
2017-08-28T20:52:03.336Z,101593.90
2017-08-28T20:54:33.455Z,101605.42
2017-08-28T20:57:03.231Z,101607.56
2017-08-28T20:59:33.345Z,101608.38
2017-08-28T21:02:03.010Z,101605.48
2017-08-28T21:04:33.238Z,101603.27
2017-08-28T21:07:02.970Z,101598.50
2017-08-28T21:09:32.901Z,101608.83
2017-08-28T21:12:03.046Z,101601.60
2017-08-28T21:14:33.550Z,101601.96
2017-08-28T21:17:03.555Z,101600.83
2017-08-28T21:19:33.441Z,101603.48
2017-08-28T21:22:03.329Z,101602.41
2017-08-28T21:24:33.842Z,101599.08
2017-08-28T21:27:03.776Z,101603.22
2017-08-28T21:29:33.694Z,101598.63
2017-08-28T21:32:03.357Z,101594.47
2017-08-28T21:34:33.629Z,101595.99
2017-08-28T21:37:03.290Z,101594.92
2017-08-28T21:39:33.093Z,101590.66
2017-08-28T21:42:02.716Z,101591.90
2017-08-28T21:44:32.264Z,101602.80
2017-08-28T21:47:02.018Z,101595.13
2017-08-28T21:49:31.676Z,101594.05
2017-08-28T21:52:01.608Z,101590.52
2017-08-28T21:54:31.222Z,101589.02
2017-08-28T21:57:00.821Z,101592.48
2017-08-28T21:59:30.333Z,101590.95
2017-08-28T22:01:59.882Z,101591.72
2017-08-28T22:04:30.233Z,101582.20
2017-08-28T22:06:59.898Z,101586.92
2017-08-28T22:09:29.733Z,101583.92
2017-08-28T22:11:59.546Z,101586.48
2017-08-28T22:14:30.434Z,101587.81
2017-08-28T22:17:00.464Z,101579.87
2017-08-28T22:19:30.650Z,101582.37
2017-08-28T22:22:00.640Z,101587.39
2017-08-28T22:24:30.572Z,101586.77
2017-08-28T22:27:00.303Z,101584.30
2017-08-28T22:29:31.010Z,101588.92
2017-08-28T22:32:01.062Z,101583.25
2017-08-28T22:34:31.002Z,101584.42
2017-08-28T22:37:00.784Z,101581.60
2017-08-28T22:39:30.350Z,101580.78
2017-08-28T22:41:59.913Z,101574.10
2017-08-28T22:44:29.959Z,101586.47
2017-08-28T22:46:59.784Z,101583.85
2017-08-28T22:49:29.509Z,101587.11
2017-08-28T22:51:59.037Z,101584.34
2017-08-28T22:54:28.753Z,101584.50
2017-08-28T22:56:58.676Z,101580.42
2017-08-28T22:59:28.573Z,101573.86
2017-08-28T23:01:58.259Z,101574.57
2017-08-28T23:04:28.095Z,101581.38
2017-08-28T23:06:57.854Z,101572.78
2017-08-28T23:09:28.109Z,101563.61
2017-08-28T23:11:58.138Z,101562.21
2017-08-28T23:14:27.668Z,101563.59
2017-08-28T23:16:57.224Z,101565.48
2017-08-28T23:19:26.836Z,101571.00
2017-08-28T23:21:56.542Z,101564.00
2017-08-28T23:24:26.445Z,101566.47
2017-08-28T23:26:56.567Z,101563.33
2017-08-28T23:29:26.125Z,101562.84
2017-08-28T23:31:55.676Z,101569.52
2017-08-28T23:34:25.198Z,101562.05
2017-08-28T23:36:54.995Z,101557.92
2017-08-28T23:39:24.542Z,101551.92
2017-08-28T23:41:54.412Z,101557.18
2017-08-28T23:44:24.432Z,101545.34
2017-08-28T23:46:54.188Z,101547.91
2017-08-28T23:49:23.687Z,101544.20
2017-08-28T23:51:53.253Z,101545.17
2017-08-28T23:54:23.041Z,101542.34
2017-08-28T23:56:52.685Z,101548.05
2017-08-28T23:59:22.486Z,101548.19
